sensor_id;sensor_type;location;lat;lon;timestamp;temperature;humidity
22974;DHT22;11653;50.848;4.584;2023-04-08T00:01:58;10.60;99.90
22974;DHT22;11653;50.848;4.584;2023-04-08T00:04:24;10.60;99.90
22974;DHT22;11653;50.848;4.584;2023-04-08T00:06:49;10.70;99.90
22974;DHT22;11653;50.848;4.584;2023-04-08T00:09:16;10.70;99.90
22974;DHT22;11653;50.848;4.584;2023-04-08T00:11:41;10.70;99.90
22974;DHT22;11653;50.848;4.584;2023-04-08T00:14:07;10.70;99.90
22974;DHT22;11653;50.848;4.584;2023-04-08T00:16:33;10.60;99.90
22974;DHT22;11653;50.848;4.584;2023-04-08T00:18:58;10.60;99.90
22974;DHT22;11653;50.848;4.584;2023-04-08T00:21:24;10.70;99.90
22974;DHT22;11653;50.848;4.584;2023-04-08T00:23:51;10.70;99.90
22974;DHT22;11653;50.848;4.584;2023-04-08T00:26:17;10.60;99.90
22974;DHT22;11653;50.848;4.584;2023-04-08T00:28:42;10.70;99.90
22974;DHT22;11653;50.848;4.584;2023-04-08T00:31:08;10.70;99.90
22974;DHT22;11653;50.848;4.584;2023-04-08T00:33:34;10.70;99.90
22974;DHT22;11653;50.848;4.584;2023-04-08T00:36:00;10.60;99.90
22974;DHT22;11653;50.848;4.584;2023-04-08T00:38:26;10.70;99.90
22974;DHT22;11653;50.848;4.584;2023-04-08T00:40:52;10.70;99.90
22974;DHT22;11653;50.848;4.584;2023-04-08T00:43:17;10.70;99.90
22974;DHT22;11653;50.848;4.584;2023-04-08T00:45:46;10.70;99.90
22974;DHT22;11653;50.848;4.584;2023-04-08T00:48:12;10.70;99.90
22974;DHT22;11653;50.848;4.584;2023-04-08T00:50:38;10.70;99.90
22974;DHT22;11653;50.848;4.584;2023-04-08T00:53:03;10.60;99.90
22974;DHT22;11653;50.848;4.584;2023-04-08T00:55:29;10.60;99.90
22974;DHT22;11653;50.848;4.584;2023-04-08T00:57:56;10.60;99.90
22974;DHT22;11653;50.848;4.584;2023-04-08T01:00:22;10.60;99.90
22974;DHT22;11653;50.848;4.584;2023-04-08T01:08:14;10.80;99.90
22974;DHT22;11653;50.848;4.584;2023-04-08T01:10:41;10.70;99.90
22974;DHT22;11653;50.848;4.584;2023-04-08T01:13:11;10.60;99.90
22974;DHT22;11653;50.848;4.584;2023-04-08T01:15:39;10.60;99.90
22974;DHT22;11653;50.848;4.584;2023-04-08T01:18:11;10.70;99.90
22974;DHT22;11653;50.848;4.584;2023-04-08T01:20:39;10.70;99.90
22974;DHT22;11653;50.848;4.584;2023-04-08T01:23:16;10.60;99.90
22974;DHT22;11653;50.848;4.584;2023-04-08T01:26:00;10.50;99.90
22974;DHT22;11653;50.848;4.584;2023-04-08T01:28:28;10.50;99.90
22974;DHT22;11653;50.848;4.584;2023-04-08T01:30:57;10.50;99.90
22974;DHT22;11653;50.848;4.584;2023-04-08T01:33:24;10.60;99.90
22974;DHT22;11653;50.848;4.584;2023-04-08T01:35:51;10.50;99.90
22974;DHT22;11653;50.848;4.584;2023-04-08T01:38:18;10.60;99.90
22974;DHT22;11653;50.848;4.584;2023-04-08T01:40:46;10.60;99.90
22974;DHT22;11653;50.848;4.584;2023-04-08T01:43:16;10.60;99.90
22974;DHT22;11653;50.848;4.584;2023-04-08T01:45:44;10.70;99.90
22974;DHT22;11653;50.848;4.584;2023-04-08T01:48:12;10.70;99.90
22974;DHT22;11653;50.848;4.584;2023-04-08T01:50:42;10.70;99.90
22974;DHT22;11653;50.848;4.584;2023-04-08T01:53:10;10.60;99.90
22974;DHT22;11653;50.848;4.584;2023-04-08T01:55:37;10.70;99.90
22974;DHT22;11653;50.848;4.584;2023-04-08T01:58:06;10.60;99.90
22974;DHT22;11653;50.848;4.584;2023-04-08T02:00:33;10.60;99.90
22974;DHT22;11653;50.848;4.584;2023-04-08T02:03:01;10.60;99.90
22974;DHT22;11653;50.848;4.584;2023-04-08T02:05:27;10.50;99.90
22974;DHT22;11653;50.848;4.584;2023-04-08T02:07:53;10.50;99.90
22974;DHT22;11653;50.848;4.584;2023-04-08T02:10:18;10.50;99.90
22974;DHT22;11653;50.848;4.584;2023-04-08T02:12:45;10.60;99.90
22974;DHT22;11653;50.848;4.584;2023-04-08T02:15:11;10.40;99.90
22974;DHT22;11653;50.848;4.584;2023-04-08T02:17:44;10.40;99.90
22974;DHT22;11653;50.848;4.584;2023-04-08T02:20:33;10.40;99.90
22974;DHT22;11653;50.848;4.584;2023-04-08T02:23:19;10.40;99.90
22974;DHT22;11653;50.848;4.584;2023-04-08T02:25:46;10.60;99.90
22974;DHT22;11653;50.848;4.584;2023-04-08T02:28:13;10.50;99.90
22974;DHT22;11653;50.848;4.584;2023-04-08T02:30:42;10.60;99.90
22974;DHT22;11653;50.848;4.584;2023-04-08T02:33:08;10.50;99.90
22974;DHT22;11653;50.848;4.584;2023-04-08T02:35:35;10.50;99.90
22974;DHT22;11653;50.848;4.584;2023-04-08T02:38:02;10.50;99.90
22974;DHT22;11653;50.848;4.584;2023-04-08T02:40:30;10.50;99.90
22974;DHT22;11653;50.848;4.584;2023-04-08T02:42:57;10.40;99.90
22974;DHT22;11653;50.848;4.584;2023-04-08T02:45:26;10.40;99.90
22974;DHT22;11653;50.848;4.584;2023-04-08T02:47:52;10.40;99.90
22974;DHT22;11653;50.848;4.584;2023-04-08T02:50:17;10.30;99.90
22974;DHT22;11653;50.848;4.584;2023-04-08T02:52:43;10.40;99.90
22974;DHT22;11653;50.848;4.584;2023-04-08T02:55:09;10.40;99.90
22974;DHT22;11653;50.848;4.584;2023-04-08T02:57:37;10.40;99.90
22974;DHT22;11653;50.848;4.584;2023-04-08T03:00:04;10.40;99.90
22974;DHT22;11653;50.848;4.584;2023-04-08T03:02:29;10.40;99.90
22974;DHT22;11653;50.848;4.584;2023-04-08T03:04:55;10.40;99.90
22974;DHT22;11653;50.848;4.584;2023-04-08T03:07:21;10.40;99.90
22974;DHT22;11653;50.848;4.584;2023-04-08T03:09:47;10.40;99.90
22974;DHT22;11653;50.848;4.584;2023-04-08T03:12:12;10.40;99.90
22974;DHT22;11653;50.848;4.584;2023-04-08T03:14:38;10.50;99.90
22974;DHT22;11653;50.848;4.584;2023-04-08T03:17:03;10.60;99.90
22974;DHT22;11653;50.848;4.584;2023-04-08T03:19:29;10.50;99.90
22974;DHT22;11653;50.848;4.584;2023-04-08T03:21:55;10.50;99.90
22974;DHT22;11653;50.848;4.584;2023-04-08T03:24:20;10.60;99.90
22974;DHT22;11653;50.848;4.584;2023-04-08T03:26:46;10.60;99.90
22974;DHT22;11653;50.848;4.584;2023-04-08T03:29:12;10.50;99.90
22974;DHT22;11653;50.848;4.584;2023-04-08T03:31:37;10.50;99.90
22974;DHT22;11653;50.848;4.584;2023-04-08T03:34:03;10.60;99.90
22974;DHT22;11653;50.848;4.584;2023-04-08T03:36:28;10.60;99.90
22974;DHT22;11653;50.848;4.584;2023-04-08T03:38:54;10.50;99.90
22974;DHT22;11653;50.848;4.584;2023-04-08T03:41:20;10.50;99.90
22974;DHT22;11653;50.848;4.584;2023-04-08T03:43:46;10.60;99.90
22974;DHT22;11653;50.848;4.584;2023-04-08T03:46:11;10.60;99.90
22974;DHT22;11653;50.848;4.584;2023-04-08T03:48:37;10.60;99.90
22974;DHT22;11653;50.848;4.584;2023-04-08T03:51:03;10.60;99.90
22974;DHT22;11653;50.848;4.584;2023-04-08T03:53:28;10.60;99.90
22974;DHT22;11653;50.848;4.584;2023-04-08T03:55:55;10.60;99.90
22974;DHT22;11653;50.848;4.584;2023-04-08T03:58:21;10.70;99.90
22974;DHT22;11653;50.848;4.584;2023-04-08T04:00:47;10.70;99.90
22974;DHT22;11653;50.848;4.584;2023-04-08T04:03:13;10.60;99.90
22974;DHT22;11653;50.848;4.584;2023-04-08T04:05:39;10.60;99.90
22974;DHT22;11653;50.848;4.584;2023-04-08T04:08:05;10.60;99.90
22974;DHT22;11653;50.848;4.584;2023-04-08T04:10:31;10.60;99.90
22974;DHT22;11653;50.848;4.584;2023-04-08T04:12:57;10.60;99.90
22974;DHT22;11653;50.848;4.584;2023-04-08T04:15:22;10.60;99.90
22974;DHT22;11653;50.848;4.584;2023-04-08T04:17:48;10.60;99.90
22974;DHT22;11653;50.848;4.584;2023-04-08T04:20:17;10.70;99.90
22974;DHT22;11653;50.848;4.584;2023-04-08T04:22:43;10.70;99.90
22974;DHT22;11653;50.848;4.584;2023-04-08T04:25:09;10.60;99.90
22974;DHT22;11653;50.848;4.584;2023-04-08T04:27:35;10.60;99.90
22974;DHT22;11653;50.848;4.584;2023-04-08T04:30:02;10.60;99.90
22974;DHT22;11653;50.848;4.584;2023-04-08T04:32:27;10.50;99.90
22974;DHT22;11653;50.848;4.584;2023-04-08T04:34:53;10.60;99.90
22974;DHT22;11653;50.848;4.584;2023-04-08T04:37:19;10.60;99.90
22974;DHT22;11653;50.848;4.584;2023-04-08T04:39:44;10.50;99.90
22974;DHT22;11653;50.848;4.584;2023-04-08T04:42:11;10.50;99.90
22974;DHT22;11653;50.848;4.584;2023-04-08T04:44:36;10.60;99.90
22974;DHT22;11653;50.848;4.584;2023-04-08T04:47:02;10.50;99.90
22974;DHT22;11653;50.848;4.584;2023-04-08T04:49:28;10.50;99.90
22974;DHT22;11653;50.848;4.584;2023-04-08T04:51:54;10.40;99.90
22974;DHT22;11653;50.848;4.584;2023-04-08T04:54:20;10.50;99.90
22974;DHT22;11653;50.848;4.584;2023-04-08T04:56:45;10.50;99.90
22974;DHT22;11653;50.848;4.584;2023-04-08T04:59:11;10.50;99.90
22974;DHT22;11653;50.848;4.584;2023-04-08T05:01:37;10.50;99.90
22974;DHT22;11653;50.848;4.584;2023-04-08T05:04:05;10.50;99.90
22974;DHT22;11653;50.848;4.584;2023-04-08T05:06:31;10.50;99.90
22974;DHT22;11653;50.848;4.584;2023-04-08T05:08:57;10.50;99.90
22974;DHT22;11653;50.848;4.584;2023-04-08T05:11:22;10.50;99.90
22974;DHT22;11653;50.848;4.584;2023-04-08T05:13:48;10.60;99.90
22974;DHT22;11653;50.848;4.584;2023-04-08T05:16:14;10.60;99.90
22974;DHT22;11653;50.848;4.584;2023-04-08T05:18:41;10.60;99.90
22974;DHT22;11653;50.848;4.584;2023-04-08T05:21:06;10.60;99.90
22974;DHT22;11653;50.848;4.584;2023-04-08T05:23:33;10.70;99.90
22974;DHT22;11653;50.848;4.584;2023-04-08T05:25:59;10.70;99.90
22974;DHT22;11653;50.848;4.584;2023-04-08T05:28:25;10.80;99.90
22974;DHT22;11653;50.848;4.584;2023-04-08T05:30:52;10.80;99.90
22974;DHT22;11653;50.848;4.584;2023-04-08T05:33:18;10.90;99.90
22974;DHT22;11653;50.848;4.584;2023-04-08T05:35:45;10.90;99.90
22974;DHT22;11653;50.848;4.584;2023-04-08T05:38:11;10.80;99.90
22974;DHT22;11653;50.848;4.584;2023-04-08T05:40:37;10.90;99.90
22974;DHT22;11653;50.848;4.584;2023-04-08T05:43:03;10.90;99.90
22974;DHT22;11653;50.848;4.584;2023-04-08T05:45:29;10.80;99.90
22974;DHT22;11653;50.848;4.584;2023-04-08T05:47:54;10.80;99.90
22974;DHT22;11653;50.848;4.584;2023-04-08T05:50:20;10.70;99.90
22974;DHT22;11653;50.848;4.584;2023-04-08T05:52:46;10.70;99.90
22974;DHT22;11653;50.848;4.584;2023-04-08T05:55:13;10.70;99.90
22974;DHT22;11653;50.848;4.584;2023-04-08T05:57:39;10.70;99.90
22974;DHT22;11653;50.848;4.584;2023-04-08T06:00:06;10.70;99.90
22974;DHT22;11653;50.848;4.584;2023-04-08T06:02:33;10.70;99.90
22974;DHT22;11653;50.848;4.584;2023-04-08T06:04:59;10.70;99.90
22974;DHT22;11653;50.848;4.584;2023-04-08T06:07:25;10.70;99.90
22974;DHT22;11653;50.848;4.584;2023-04-08T06:09:50;10.80;99.90
22974;DHT22;11653;50.848;4.584;2023-04-08T06:12:16;10.70;99.90
22974;DHT22;11653;50.848;4.584;2023-04-08T06:14:42;10.60;99.90
22974;DHT22;11653;50.848;4.584;2023-04-08T06:17:07;10.70;99.90
22974;DHT22;11653;50.848;4.584;2023-04-08T06:19:33;10.80;99.90
22974;DHT22;11653;50.848;4.584;2023-04-08T06:21:59;10.80;99.90
22974;DHT22;11653;50.848;4.584;2023-04-08T06:24:26;10.70;99.90
22974;DHT22;11653;50.848;4.584;2023-04-08T06:26:52;10.70;99.90
22974;DHT22;11653;50.848;4.584;2023-04-08T06:29:19;10.80;99.90
22974;DHT22;11653;50.848;4.584;2023-04-08T06:31:45;10.90;99.90
22974;DHT22;11653;50.848;4.584;2023-04-08T06:34:11;11.00;99.90
22974;DHT22;11653;50.848;4.584;2023-04-08T06:36:36;10.90;99.90
22974;DHT22;11653;50.848;4.584;2023-04-08T06:39:02;10.80;99.90
22974;DHT22;11653;50.848;4.584;2023-04-08T06:41:29;10.70;99.90
22974;DHT22;11653;50.848;4.584;2023-04-08T06:43:55;10.80;99.90
22974;DHT22;11653;50.848;4.584;2023-04-08T06:46:21;10.80;99.90
22974;DHT22;11653;50.848;4.584;2023-04-08T06:48:47;10.80;99.90
22974;DHT22;11653;50.848;4.584;2023-04-08T06:51:12;10.90;99.90
22974;DHT22;11653;50.848;4.584;2023-04-08T06:53:38;11.00;99.90
22974;DHT22;11653;50.848;4.584;2023-04-08T06:56:04;11.00;99.90
22974;DHT22;11653;50.848;4.584;2023-04-08T06:58:29;11.20;99.90
22974;DHT22;11653;50.848;4.584;2023-04-08T07:00:55;11.20;99.90
22974;DHT22;11653;50.848;4.584;2023-04-08T07:03:22;11.30;99.90
22974;DHT22;11653;50.848;4.584;2023-04-08T07:05:47;11.40;99.90
22974;DHT22;11653;50.848;4.584;2023-04-08T07:08:13;11.50;99.90
22974;DHT22;11653;50.848;4.584;2023-04-08T07:10:39;11.60;99.90
22974;DHT22;11653;50.848;4.584;2023-04-08T07:13:06;11.90;99.90
22974;DHT22;11653;50.848;4.584;2023-04-08T07:15:32;12.20;99.90
22974;DHT22;11653;50.848;4.584;2023-04-08T07:17:57;12.40;99.90
22974;DHT22;11653;50.848;4.584;2023-04-08T07:20:24;12.50;99.90
22974;DHT22;11653;50.848;4.584;2023-04-08T07:22:50;12.70;99.90
22974;DHT22;11653;50.848;4.584;2023-04-08T07:25:16;12.80;99.90
22974;DHT22;11653;50.848;4.584;2023-04-08T07:27:42;13.00;99.90
22974;DHT22;11653;50.848;4.584;2023-04-08T07:30:08;13.00;99.90
22974;DHT22;11653;50.848;4.584;2023-04-08T07:32:34;13.20;99.90
22974;DHT22;11653;50.848;4.584;2023-04-08T07:35:00;13.00;99.90
22974;DHT22;11653;50.848;4.584;2023-04-08T07:37:26;13.00;99.90
22974;DHT22;11653;50.848;4.584;2023-04-08T07:39:52;13.00;99.90
22974;DHT22;11653;50.848;4.584;2023-04-08T07:42:18;12.90;99.90
22974;DHT22;11653;50.848;4.584;2023-04-08T07:44:44;12.90;99.90
22974;DHT22;11653;50.848;4.584;2023-04-08T07:47:10;13.00;99.90
22974;DHT22;11653;50.848;4.584;2023-04-08T07:49:36;13.00;99.90
22974;DHT22;11653;50.848;4.584;2023-04-08T07:52:03;13.10;99.90
22974;DHT22;11653;50.848;4.584;2023-04-08T07:54:30;13.20;99.90
22974;DHT22;11653;50.848;4.584;2023-04-08T07:56:56;13.20;99.90
22974;DHT22;11653;50.848;4.584;2023-04-08T07:59:24;13.30;99.90
22974;DHT22;11653;50.848;4.584;2023-04-08T08:01:49;13.50;99.90
22974;DHT22;11653;50.848;4.584;2023-04-08T08:04:15;13.80;99.90
22974;DHT22;11653;50.848;4.584;2023-04-08T08:06:41;13.80;99.90
22974;DHT22;11653;50.848;4.584;2023-04-08T08:09:06;13.80;99.90
22974;DHT22;11653;50.848;4.584;2023-04-08T08:11:32;13.80;99.90
22974;DHT22;11653;50.848;4.584;2023-04-08T08:13:57;13.80;99.90
22974;DHT22;11653;50.848;4.584;2023-04-08T08:16:28;13.70;99.90
22974;DHT22;11653;50.848;4.584;2023-04-08T08:18:53;13.70;99.90
22974;DHT22;11653;50.848;4.584;2023-04-08T08:21:19;13.50;99.90
22974;DHT22;11653;50.848;4.584;2023-04-08T08:23:45;13.40;99.90
22974;DHT22;11653;50.848;4.584;2023-04-08T08:26:11;13.40;99.90
22974;DHT22;11653;50.848;4.584;2023-04-08T08:28:37;13.40;99.90
22974;DHT22;11653;50.848;4.584;2023-04-08T08:31:03;13.40;99.90
22974;DHT22;11653;50.848;4.584;2023-04-08T08:33:30;13.40;99.90
22974;DHT22;11653;50.848;4.584;2023-04-08T08:35:56;13.40;99.90
22974;DHT22;11653;50.848;4.584;2023-04-08T08:38:25;13.20;99.90
22974;DHT22;11653;50.848;4.584;2023-04-08T08:40:55;13.20;99.90
22974;DHT22;11653;50.848;4.584;2023-04-08T08:43:24;13.20;99.90
22974;DHT22;11653;50.848;4.584;2023-04-08T08:45:50;13.20;99.90
22974;DHT22;11653;50.848;4.584;2023-04-08T08:48:16;13.30;99.90
22974;DHT22;11653;50.848;4.584;2023-04-08T08:50:42;13.40;99.90
22974;DHT22;11653;50.848;4.584;2023-04-08T08:53:08;13.50;99.90
22974;DHT22;11653;50.848;4.584;2023-04-08T08:55:33;13.60;99.90
22974;DHT22;11653;50.848;4.584;2023-04-08T08:58:00;13.60;99.90
22974;DHT22;11653;50.848;4.584;2023-04-08T09:00:40;13.90;99.90
22974;DHT22;11653;50.848;4.584;2023-04-08T09:03:23;14.10;99.90
22974;DHT22;11653;50.848;4.584;2023-04-08T09:06:02;14.30;99.90
22974;DHT22;11653;50.848;4.584;2023-04-08T09:08:32;14.40;99.90
22974;DHT22;11653;50.848;4.584;2023-04-08T09:11:18;14.60;99.90
22974;DHT22;11653;50.848;4.584;2023-04-08T09:13:48;14.80;99.90
22974;DHT22;11653;50.848;4.584;2023-04-08T09:16:16;14.70;99.90
22974;DHT22;11653;50.848;4.584;2023-04-08T09:18:43;14.60;99.90
22974;DHT22;11653;50.848;4.584;2023-04-08T09:21:11;14.60;99.90
22974;DHT22;11653;50.848;4.584;2023-04-08T09:23:44;14.80;99.90
22974;DHT22;11653;50.848;4.584;2023-04-08T09:26:13;15.20;99.90
22974;DHT22;11653;50.848;4.584;2023-04-08T09:28:41;15.40;99.90
22974;DHT22;11653;50.848;4.584;2023-04-08T09:31:27;15.60;99.90
22974;DHT22;11653;50.848;4.584;2023-04-08T09:33:55;16.00;99.90
22974;DHT22;11653;50.848;4.584;2023-04-08T09:36:21;16.30;99.90
22974;DHT22;11653;50.848;4.584;2023-04-08T09:38:46;16.90;99.90
22974;DHT22;11653;50.848;4.584;2023-04-08T09:41:14;17.50;99.90
22974;DHT22;11653;50.848;4.584;2023-04-08T09:43:47;19.00;99.90
22974;DHT22;11653;50.848;4.584;2023-04-08T09:46:17;21.00;99.70
22974;DHT22;11653;50.848;4.584;2023-04-08T09:51:44;23.60;90.30
22974;DHT22;11653;50.848;4.584;2023-04-08T09:54:14;23.70;84.90
22974;DHT22;11653;50.848;4.584;2023-04-08T09:56:48;23.30;81.90
22974;DHT22;11653;50.848;4.584;2023-04-08T09:59:16;22.70;82.50
22974;DHT22;11653;50.848;4.584;2023-04-08T10:01:52;22.70;83.30
22974;DHT22;11653;50.848;4.584;2023-04-08T10:04:19;22.70;83.30
22974;DHT22;11653;50.848;4.584;2023-04-08T10:06:56;22.80;82.50
22974;DHT22;11653;50.848;4.584;2023-04-08T10:09:22;22.50;79.80
22974;DHT22;11653;50.848;4.584;2023-04-08T10:11:48;22.10;80.00
22974;DHT22;11653;50.848;4.584;2023-04-08T10:14:14;21.80;81.10
22974;DHT22;11653;50.848;4.584;2023-04-08T10:16:40;21.60;81.20
22974;DHT22;11653;50.848;4.584;2023-04-08T10:19:35;21.90;79.70
22974;DHT22;11653;50.848;4.584;2023-04-08T10:22:01;21.80;79.40
22974;DHT22;11653;50.848;4.584;2023-04-08T10:24:27;22.00;80.00
22974;DHT22;11653;50.848;4.584;2023-04-08T10:26:53;21.90;79.30
22974;DHT22;11653;50.848;4.584;2023-04-08T10:31:53;20.70;85.00
22974;DHT22;11653;50.848;4.584;2023-04-08T10:34:21;20.10;88.90
22974;DHT22;11653;50.848;4.584;2023-04-08T10:36:49;19.60;90.40
22974;DHT22;11653;50.848;4.584;2023-04-08T10:39:15;19.00;91.70
22974;DHT22;11653;50.848;4.584;2023-04-08T10:41:50;18.60;93.00
22974;DHT22;11653;50.848;4.584;2023-04-08T10:44:17;18.20;94.30
22974;DHT22;11653;50.848;4.584;2023-04-08T10:46:47;17.90;95.60
22974;DHT22;11653;50.848;4.584;2023-04-08T10:49:14;17.70;96.50
22974;DHT22;11653;50.848;4.584;2023-04-08T10:51:40;17.60;97.40
22974;DHT22;11653;50.848;4.584;2023-04-08T10:54:14;17.50;97.60
22974;DHT22;11653;50.848;4.584;2023-04-08T10:56:51;17.50;97.70
22974;DHT22;11653;50.848;4.584;2023-04-08T10:59:30;17.50;97.60
22974;DHT22;11653;50.848;4.584;2023-04-08T11:01:57;17.60;97.40
22974;DHT22;11653;50.848;4.584;2023-04-08T11:04:24;17.70;97.70
22974;DHT22;11653;50.848;4.584;2023-04-08T11:06:50;17.80;97.50
22974;DHT22;11653;50.848;4.584;2023-04-08T11:09:16;18.20;97.80
22974;DHT22;11653;50.848;4.584;2023-04-08T11:11:43;19.40;95.10
22974;DHT22;11653;50.848;4.584;2023-04-08T11:14:09;20.80;92.60
22974;DHT22;11653;50.848;4.584;2023-04-08T11:16:39;21.60;90.50
22974;DHT22;11653;50.848;4.584;2023-04-08T11:19:06;22.00;90.20
22974;DHT22;11653;50.848;4.584;2023-04-08T11:21:35;22.00;88.10
22974;DHT22;11653;50.848;4.584;2023-04-08T11:24:05;22.30;87.80
22974;DHT22;11653;50.848;4.584;2023-04-08T11:26:31;22.80;86.60
22974;DHT22;11653;50.848;4.584;2023-04-08T11:28:57;22.80;85.90
22974;DHT22;11653;50.848;4.584;2023-04-08T11:31:25;22.50;84.50
22974;DHT22;11653;50.848;4.584;2023-04-08T11:33:53;22.20;86.10
22974;DHT22;11653;50.848;4.584;2023-04-08T11:36:20;21.50;85.30
22974;DHT22;11653;50.848;4.584;2023-04-08T11:38:46;21.00;85.70
22974;DHT22;11653;50.848;4.584;2023-04-08T11:41:12;20.20;89.30
22974;DHT22;11653;50.848;4.584;2023-04-08T11:43:38;19.80;90.60
22974;DHT22;11653;50.848;4.584;2023-04-08T11:46:09;19.40;90.80
22974;DHT22;11653;50.848;4.584;2023-04-08T11:48:36;18.90;91.60
22974;DHT22;11653;50.848;4.584;2023-04-08T11:51:07;18.60;92.10
22974;DHT22;11653;50.848;4.584;2023-04-08T11:53:37;18.30;93.40
22974;DHT22;11653;50.848;4.584;2023-04-08T11:56:19;18.10;93.30
22974;DHT22;11653;50.848;4.584;2023-04-08T11:58:45;18.10;93.50
22974;DHT22;11653;50.848;4.584;2023-04-08T12:01:12;18.20;94.00
22974;DHT22;11653;50.848;4.584;2023-04-08T12:03:38;18.00;94.50
22974;DHT22;11653;50.848;4.584;2023-04-08T12:06:03;17.80;94.60
22974;DHT22;11653;50.848;4.584;2023-04-08T12:08:31;17.80;95.30
22974;DHT22;11653;50.848;4.584;2023-04-08T12:10:57;18.00;94.70
22974;DHT22;11653;50.848;4.584;2023-04-08T12:13:23;18.20;94.80
22974;DHT22;11653;50.848;4.584;2023-04-08T12:15:48;18.40;94.90
22974;DHT22;11653;50.848;4.584;2023-04-08T12:18:14;18.50;94.90
22974;DHT22;11653;50.848;4.584;2023-04-08T12:20:40;18.60;94.20
22974;DHT22;11653;50.848;4.584;2023-04-08T12:23:06;18.60;94.60
22974;DHT22;11653;50.848;4.584;2023-04-08T12:25:32;18.50;94.70
22974;DHT22;11653;50.848;4.584;2023-04-08T12:27:58;18.40;94.70
22974;DHT22;11653;50.848;4.584;2023-04-08T12:30:24;18.30;94.70
22974;DHT22;11653;50.848;4.584;2023-04-08T12:32:49;18.10;94.10
22974;DHT22;11653;50.848;4.584;2023-04-08T12:35:15;17.90;94.40
22974;DHT22;11653;50.848;4.584;2023-04-08T12:37:40;17.90;94.50
22974;DHT22;11653;50.848;4.584;2023-04-08T12:40:07;18.00;95.10
22974;DHT22;11653;50.848;4.584;2023-04-08T12:42:32;17.90;94.80
22974;DHT22;11653;50.848;4.584;2023-04-08T12:44:59;17.70;94.90
22974;DHT22;11653;50.848;4.584;2023-04-08T12:47:25;17.60;95.90
22974;DHT22;11653;50.848;4.584;2023-04-08T12:49:50;17.60;96.40
22974;DHT22;11653;50.848;4.584;2023-04-08T12:52:16;17.60;96.50
22974;DHT22;11653;50.848;4.584;2023-04-08T12:54:43;17.80;96.70
22974;DHT22;11653;50.848;4.584;2023-04-08T12:57:08;17.90;96.70
22974;DHT22;11653;50.848;4.584;2023-04-08T12:59:34;17.70;97.00
22974;DHT22;11653;50.848;4.584;2023-04-08T13:02:00;17.70;97.00
22974;DHT22;11653;50.848;4.584;2023-04-08T13:04:26;17.60;96.60
22974;DHT22;11653;50.848;4.584;2023-04-08T13:06:51;17.70;98.00
22974;DHT22;11653;50.848;4.584;2023-04-08T13:09:17;17.90;97.90
22974;DHT22;11653;50.848;4.584;2023-04-08T13:11:42;18.10;97.60
22974;DHT22;11653;50.848;4.584;2023-04-08T13:14:08;18.10;96.70
22974;DHT22;11653;50.848;4.584;2023-04-08T13:16:34;18.10;95.30
22974;DHT22;11653;50.848;4.584;2023-04-08T13:18:59;18.00;96.20
22974;DHT22;11653;50.848;4.584;2023-04-08T13:21:25;18.10;96.90
22974;DHT22;11653;50.848;4.584;2023-04-08T13:23:51;18.50;96.40
22974;DHT22;11653;50.848;4.584;2023-04-08T13:26:17;18.60;96.00
22974;DHT22;11653;50.848;4.584;2023-04-08T13:28:43;18.60;94.90
22974;DHT22;11653;50.848;4.584;2023-04-08T13:31:08;18.40;94.60
22974;DHT22;11653;50.848;4.584;2023-04-08T13:33:34;18.70;95.20
22974;DHT22;11653;50.848;4.584;2023-04-08T13:36:00;18.90;96.30
22974;DHT22;11653;50.848;4.584;2023-04-08T13:38:25;19.00;93.60
22974;DHT22;11653;50.848;4.584;2023-04-08T13:40:51;19.30;93.70
22974;DHT22;11653;50.848;4.584;2023-04-08T13:43:16;19.20;93.80
22974;DHT22;11653;50.848;4.584;2023-04-08T13:45:42;19.00;94.30
22974;DHT22;11653;50.848;4.584;2023-04-08T13:48:08;19.00;94.20
22974;DHT22;11653;50.848;4.584;2023-04-08T13:50:34;18.80;94.30
22974;DHT22;11653;50.848;4.584;2023-04-08T13:53:00;18.50;94.90
22974;DHT22;11653;50.848;4.584;2023-04-08T13:55:26;18.30;95.10
22974;DHT22;11653;50.848;4.584;2023-04-08T13:57:52;18.00;95.80
22974;DHT22;11653;50.848;4.584;2023-04-08T14:00:17;17.90;95.60
22974;DHT22;11653;50.848;4.584;2023-04-08T14:02:43;17.80;95.80
22974;DHT22;11653;50.848;4.584;2023-04-08T14:05:09;17.60;96.20
22974;DHT22;11653;50.848;4.584;2023-04-08T14:07:34;17.40;95.90
22974;DHT22;11653;50.848;4.584;2023-04-08T14:10:00;17.00;95.70
22974;DHT22;11653;50.848;4.584;2023-04-08T14:12:25;17.10;96.00
22974;DHT22;11653;50.848;4.584;2023-04-08T14:14:51;17.10;95.30
22974;DHT22;11653;50.848;4.584;2023-04-08T14:17:17;17.10;96.10
22974;DHT22;11653;50.848;4.584;2023-04-08T14:19:42;17.20;95.70
22974;DHT22;11653;50.848;4.584;2023-04-08T14:22:08;17.30;96.00
22974;DHT22;11653;50.848;4.584;2023-04-08T14:24:34;17.30;96.40
22974;DHT22;11653;50.848;4.584;2023-04-08T14:26:59;17.50;96.80
22974;DHT22;11653;50.848;4.584;2023-04-08T14:29:25;17.70;96.10
22974;DHT22;11653;50.848;4.584;2023-04-08T14:31:51;17.90;95.80
22974;DHT22;11653;50.848;4.584;2023-04-08T14:34:16;18.00;96.50
22974;DHT22;11653;50.848;4.584;2023-04-08T14:36:42;18.30;95.20
22974;DHT22;11653;50.848;4.584;2023-04-08T14:39:08;18.50;96.20
22974;DHT22;11653;50.848;4.584;2023-04-08T14:41:33;18.80;93.60
22974;DHT22;11653;50.848;4.584;2023-04-08T14:43:59;18.80;93.40
22974;DHT22;11653;50.848;4.584;2023-04-08T14:46:25;18.70;94.90
22974;DHT22;11653;50.848;4.584;2023-04-08T14:48:51;18.50;94.30
22974;DHT22;11653;50.848;4.584;2023-04-08T14:51:17;18.10;94.00
22974;DHT22;11653;50.848;4.584;2023-04-08T14:53:43;17.80;94.70
22974;DHT22;11653;50.848;4.584;2023-04-08T14:56:08;17.40;94.10
22974;DHT22;11653;50.848;4.584;2023-04-08T14:58:34;17.10;94.50
22974;DHT22;11653;50.848;4.584;2023-04-08T15:01:00;17.00;95.10
22974;DHT22;11653;50.848;4.584;2023-04-08T15:03:25;16.90;95.50
22974;DHT22;11653;50.848;4.584;2023-04-08T15:05:51;16.80;95.80
22974;DHT22;11653;50.848;4.584;2023-04-08T15:08:17;16.80;96.00
22974;DHT22;11653;50.848;4.584;2023-04-08T15:10:43;17.00;94.90
22974;DHT22;11653;50.848;4.584;2023-04-08T15:13:08;16.90;95.00
22974;DHT22;11653;50.848;4.584;2023-04-08T15:15:34;16.70;95.80
22974;DHT22;11653;50.848;4.584;2023-04-08T15:18:00;16.80;95.50
22974;DHT22;11653;50.848;4.584;2023-04-08T15:20:26;16.80;95.60
22974;DHT22;11653;50.848;4.584;2023-04-08T15:22:51;16.80;95.20
22974;DHT22;11653;50.848;4.584;2023-04-08T15:25:17;16.80;95.10
22974;DHT22;11653;50.848;4.584;2023-04-08T15:27:43;16.90;94.40
22974;DHT22;11653;50.848;4.584;2023-04-08T15:30:09;16.90;94.40
22974;DHT22;11653;50.848;4.584;2023-04-08T15:32:34;17.00;94.10
22974;DHT22;11653;50.848;4.584;2023-04-08T15:35:00;16.90;93.90
22974;DHT22;11653;50.848;4.584;2023-04-08T15:37:26;16.90;93.80
22974;DHT22;11653;50.848;4.584;2023-04-08T15:39:52;17.00;93.50